Time;durP1;ratioP1;P1;durP2;ratioP2;P2;SDS_P1;SDS_P2;PMS_P1;PMS_P2;Temp;Humidity;BMP_temperature;BMP_pressure;BME280_temperature;BME280_humidity;BME280_pressure;Samples;Min_cycle;Max_cycle;Signal;HPM_P1;HPM_P2
2023/03/31 00:01:05;;;;;;;7.10;3.78;;;;;;;7.68;73.10;93120.69;5088841;28;20044;-73
2023/03/31 00:03:37;;;;;;;4.03;2.13;;;;;;;7.70;73.17;93123.06;5088619;28;20435;-73
2023/03/31 00:06:04;;;;;;;11.65;2.50;;;;;;;7.70;72.83;93128.19;5089055;28;20052;-73
2023/03/31 00:08:34;;;;;;;6.78;2.30;;;;;;;7.70;72.95;93125.63;5092365;28;20429;-73
2023/03/31 00:11:02;;;;;;;6.97;2.40;;;;;;;7.68;72.87;93109.69;5092376;28;20500;-73
2023/03/31 00:13:29;;;;;;;4.43;2.08;;;;;;;7.79;72.28;93121.09;5092499;28;20048;-73
2023/03/31 00:15:57;;;;;;;6.35;2.60;;;;;;;7.82;71.24;93118.19;5092011;28;20549;-73
2023/03/31 00:18:25;;;;;;;5.38;2.15;;;;;;;7.85;70.84;93121.13;5078828;28;20138;-73
2023/03/31 00:20:54;;;;;;;6.40;2.25;;;;;;;7.91;70.40;93114.44;5092048;28;20044;-73
2023/03/31 00:23:26;;;;;;;4.55;2.17;;;;;;;7.96;70.25;93109.53;5092491;28;20105;-73
2023/03/31 00:25:54;;;;;;;6.68;2.45;;;;;;;8.03;70.48;93106.97;5092208;28;20044;-73
2023/03/31 00:28:21;;;;;;;4.78;1.92;;;;;;;8.10;69.16;93112.09;5091792;28;20044;-73
2023/03/31 00:30:48;;;;;;;6.88;2.35;;;;;;;8.12;68.35;93113.47;5092129;28;20036;-73
2023/03/31 00:33:15;;;;;;;4.70;2.22;;;;;;;8.21;67.65;93108.94;5091450;28;20048;-73
2023/03/31 00:35:42;;;;;;;6.15;2.20;;;;;;;8.29;67.74;93107.97;5091522;28;20088;-73
2023/03/31 00:38:12;;;;;;;9.60;3.58;;;;;;;8.38;67.11;93100.88;5092075;28;20060;-73
2023/03/31 00:40:45;;;;;;;8.40;3.40;;;;;;;8.46;67.66;93103.22;5092006;28;20056;-73
2023/03/31 00:43:27;;;;;;;8.02;2.33;;;;;;;8.45;66.03;93095.72;5091833;28;20411;-73
2023/03/31 00:45:55;;;;;;;6.10;2.05;;;;;;;8.51;64.17;93093.16;5090969;28;20048;-73
2023/03/31 00:48:23;;;;;;;4.35;1.90;;;;;;;8.54;63.82;93085.13;5091651;28;20089;-73
2023/03/31 00:50:54;;;;;;;8.65;2.50;;;;;;;8.59;62.89;93078.59;5091976;28;20157;-73
2023/03/31 00:53:26;;;;;;;5.68;2.10;;;;;;;8.64;63.31;93078.78;5091611;28;20562;-73
2023/03/31 00:55:57;;;;;;;5.28;2.03;;;;;;;8.72;62.36;93081.16;5091805;28;20060;-73
2023/03/31 00:58:27;;;;;;;5.80;1.85;;;;;;;8.74;62.17;93075.84;5091907;28;20105;-74
2023/03/31 01:00:55;;;;;;;3.63;1.90;;;;;;;8.79;61.79;93076.78;5091323;28;20052;-73
2023/03/31 01:03:22;;;;;;;5.43;1.70;;;;;;;8.88;61.76;93076.59;5091570;28;20048;-73
2023/03/31 01:05:52;;;;;;;5.70;1.80;;;;;;;8.91;61.07;93074.41;5091326;28;20497;-73
2023/03/31 01:08:23;;;;;;;6.78;1.92;;;;;;;8.94;61.60;93071.41;5091161;28;20516;-73
2023/03/31 01:10:54;;;;;;;4.60;1.75;;;;;;;8.99;61.36;93063.16;5090926;28;20094;-73
2023/03/31 01:13:22;;;;;;;4.70;1.80;;;;;;;9.01;60.86;93070.59;5091482;28;20051;-73
2023/03/31 01:15:49;;;;;;;5.20;1.80;;;;;;;9.02;60.27;93070.41;5091268;28;20553;-73
2023/03/31 01:18:19;;;;;;;6.35;2.03;;;;;;;9.03;60.77;93077.09;5089867;28;20047;-73
2023/03/31 01:21:05;;;;;;;4.38;1.60;;;;;;;9.08;59.86;93082.41;5091128;28;20047;-73
2023/03/31 01:23:41;;;;;;;;;;;;;;;9.11;59.52;93083.78;5091856;28;20044;-73
2023/03/31 01:26:49;;;;;;;5.03;1.90;;;;;;;9.06;59.61;93086.94;5091253;28;19923;-73
2023/03/31 01:29:47;;;;;;;5.63;2.30;;;;;;;9.05;59.82;93079.47;5090935;28;20463;-73
2023/03/31 01:32:57;;;;;;;5.80;2.58;;;;;;;9.14;60.25;93088.50;5085219;28;20048;-73
2023/03/31 01:35:57;;;;;;;5.85;2.08;;;;;;;8.93;60.08;93058.81;5074984;28;20086;-72
2023/03/31 01:39:02;;;;;;;4.82;1.67;;;;;;;9.21;59.26;93080.75;5090840;28;20097;-73
2023/03/31 01:41:41;;;;;;;5.90;2.13;;;;;;;9.20;59.91;93092.81;5091058;28;20138;-73
2023/03/31 01:44:17;;;;;;;4.15;2.00;;;;;;;9.16;59.35;93085.75;5090915;28;20109;-73
2023/03/31 01:46:52;;;;;;;4.00;1.90;;;;;;;9.16;59.06;93091.63;5090549;28;20036;-73
2023/03/31 01:49:24;;;;;;;6.22;2.17;;;;;;;9.19;59.51;93096.38;5089452;28;20081;-73
2023/03/31 01:52:00;;;;;;;3.72;1.52;;;;;;;9.20;59.77;93099.69;5070840;28;20101;-73
2023/03/31 01:54:38;;;;;;;3.85;1.33;;;;;;;9.19;60.27;93096.38;5087898;28;20473;-73
2023/03/31 01:57:13;;;;;;;3.42;1.88;;;;;;;9.25;61.10;93107.56;5089429;28;20066;-73
2023/03/31 01:59:46;;;;;;;5.80;2.00;;;;;;;9.23;60.96;93102.63;5090593;28;20044;-73
2023/03/31 02:02:18;;;;;;;3.97;2.00;;;;;;;9.27;60.74;93107.38;5090048;28;20044;-73
2023/03/31 02:04:49;;;;;;;4.47;2.13;;;;;;;9.27;61.17;93118.41;5089881;28;20051;-73
2023/03/31 02:07:20;;;;;;;4.50;1.65;;;;;;;9.26;61.54;93121.94;5089884;28;20641;-73
2023/03/31 02:09:51;;;;;;;5.68;1.80;;;;;;;9.31;61.56;93129.81;5090323;28;20044;-73
2023/03/31 02:12:24;;;;;;;5.45;1.85;;;;;;;9.28;62.79;93132.00;5089954;28;20052;-73
2023/03/31 02:14:54;;;;;;;3.50;2.05;;;;;;;9.14;65.50;93128.72;5090391;28;20096;-73
2023/03/31 02:17:29;;;;;;;3.63;1.80;;;;;;;9.19;67.45;93136.56;5090052;28;20511;-73
2023/03/31 02:19:58;;;;;;;3.70;1.88;;;;;;;9.17;68.37;93141.91;5090190;28;20044;-73
2023/03/31 02:22:27;;;;;;;4.03;1.92;;;;;;;9.18;71.17;93140.13;5090111;28;20039;-73
2023/03/31 02:24:55;;;;;;;5.07;2.22;;;;;;;9.16;71.51;93158.28;5090134;28;20040;-73
2023/03/31 02:27:25;;;;;;;7.35;2.40;;;;;;;9.15;74.84;93151.56;5090101;28;20052;-73
2023/03/31 02:29:52;;;;;;;8.20;2.30;;;;;;;8.99;75.64;93157.94;5089541;28;20412;-73
2023/03/31 02:32:23;;;;;;;4.38;2.13;;;;;;;8.94;78.77;93142.38;5089840;28;20055;-73
2023/03/31 02:34:52;;;;;;;7.55;2.97;;;;;;;8.87;82.28;93141.59;5089968;28;20047;-73
2023/03/31 02:37:18;;;;;;;8.10;2.95;;;;;;;8.88;82.69;93143.19;5089848;28;20097;-72
2023/03/31 02:39:49;;;;;;;7.32;2.75;;;;;;;8.79;83.21;93137.47;5089450;28;20056;-72
2023/03/31 02:42:16;;;;;;;8.13;2.97;;;;;;;8.80;85.23;93139.81;5089340;28;20090;-73
2023/03/31 02:44:44;;;;;;;6.78;2.60;;;;;;;8.77;84.98;93135.13;5089659;28;20044;-73
2023/03/31 02:47:14;;;;;;;9.15;2.90;;;;;;;8.36;89.16;93070.34;5089827;28;20397;-73
2023/03/31 02:49:44;;;;;;;7.10;2.80;;;;;;;8.64;85.15;93107.75;5089416;28;20044;-73
2023/03/31 02:52:29;;;;;;;6.60;3.03;;;;;;;8.55;87.39;93112.31;5089751;28;20089;-73
2023/03/31 02:55:20;;;;;;;8.68;2.80;;;;;;;8.45;87.25;93096.53;5089266;28;20044;-73
2023/03/31 02:58:17;;;;;;;10.45;3.28;;;;;;;8.49;88.93;93096.91;5089343;28;20496;-73
2023/03/31 03:01:01;;;;;;;8.10;3.00;;;;;;;8.35;90.59;93078.22;5076238;28;20044;-73
2023/03/31 03:03:39;;;;;;;6.93;3.17;;;;;;;8.33;90.20;93072.53;5089313;28;20117;-73
2023/03/31 03:06:19;;;;;;;7.18;3.25;;;;;;;8.38;93.44;93076.06;5089384;28;20043;-73
2023/03/31 03:08:58;;;;;;;6.90;3.58;;;;;;;8.27;93.26;93054.41;5089332;28;20416;-73
2023/03/31 03:11:31;;;;;;;5.78;3.13;;;;;;;8.28;94.14;93065.44;5089472;28;20450;-73
2023/03/31 03:14:05;;;;;;;13.18;5.97;;;;;;;8.28;94.91;93052.63;5088845;28;20048;-73
2023/03/31 03:16:36;;;;;;;10.45;5.50;;;;;;;8.22;96.23;93046.56;5089574;28;20051;-73
2023/03/31 03:19:06;;;;;;;11.35;4.40;;;;;;;8.15;95.69;93044.00;5089009;28;20097;-73
2023/03/31 03:21:33;;;;;;;10.45;4.65;;;;;;;8.19;95.26;93056.41;5089130;28;20462;-73
2023/03/31 03:24:00;;;;;;;11.10;5.45;;;;;;;8.01;97.01;93024.53;5088884;28;20422;-73
2023/03/31 03:26:28;;;;;;;7.20;3.95;;;;;;;7.98;98.61;93027.47;5089197;28;20051;-73
2023/03/31 03:28:55;;;;;;;9.05;4.38;;;;;;;7.99;99.71;93034.16;5089004;28;20094;-73
2023/03/31 03:31:24;;;;;;;9.95;5.57;;;;;;;8.07;98.95;93063.88;5088850;28;20583;-73
2023/03/31 03:33:53;;;;;;;11.50;8.07;;;;;;;7.96;100.00;93058.38;5088994;28;20056;-73
2023/03/31 03:36:20;;;;;;;11.00;5.47;;;;;;;7.77;100.00;93047.16;5088714;28;20048;-72
2023/03/31 03:38:47;;;;;;;7.05;4.15;;;;;;;7.84;100.00;93068.41;5089118;28;20413;-73
2023/03/31 03:41:14;;;;;;;5.72;2.70;;;;;;;7.73;100.00;93053.66;5090057;28;20090;-73
2023/03/31 03:43:40;;;;;;;6.97;3.00;;;;;;;7.26;100.00;92989.69;5093204;28;20051;-73
2023/03/31 03:46:07;;;;;;;8.32;3.53;;;;;;;7.66;100.00;93050.28;5093157;28;20109;-73
2023/03/31 03:48:34;;;;;;;8.45;4.07;;;;;;;7.62;100.00;93057.56;5093225;28;20450;-73
2023/03/31 03:51:03;;;;;;;9.32;4.65;;;;;;;7.54;100.00;93043.19;5092889;28;20051;-72
2023/03/31 03:53:30;;;;;;;9.15;5.07;;;;;;;7.58;100.00;93041.03;5092863;28;20044;-72
2023/03/31 03:55:58;;;;;;;11.32;5.22;;;;;;;7.58;100.00;93053.81;5092941;28;20055;-72
2023/03/31 03:58:25;;;;;;;12.02;4.35;;;;;;;7.45;100.00;93044.38;5092728;28;20131;-73
2023/03/31 04:00:51;;;;;;;12.20;5.07;;;;;;;7.58;99.12;93062.28;5092277;28;20044;-72
2023/03/31 04:03:18;;;;;;;9.45;4.28;;;;;;;7.50;99.50;93057.34;5092622;28;20048;-72
2023/03/31 04:05:45;;;;;;;10.88;4.57;;;;;;;7.50;98.82;93054.78;5092406;28;20040;-72
2023/03/31 04:08:13;;;;;;;7.43;3.92;;;;;;;7.51;97.81;93063.25;5092921;28;20588;-72
2023/03/31 04:10:44;;;;;;;8.70;3.90;;;;;;;7.42;97.94;93052.41;5092959;28;20044;-72
2023/03/31 04:13:10;;;;;;;11.00;4.15;;;;;;;7.33;95.76;93042.38;5092386;28;20089;-72
2023/03/31 04:15:37;;;;;;;8.73;3.70;;;;;;;7.46;95.97;93066.38;5092593;28;20044;-72
2023/03/31 04:18:04;;;;;;;8.02;3.80;;;;;;;7.39;95.50;93070.69;5092216;28;20105;-72
2023/03/31 04:20:31;;;;;;;9.00;3.58;;;;;;;7.32;95.23;93056.13;5092285;28;20048;-72
2023/03/31 04:22:58;;;;;;;7.38;3.65;;;;;;;7.43;94.08;93075.22;5092315;28;20552;-73
2023/03/31 04:25:29;;;;;;;8.23;3.58;;;;;;;7.48;93.29;93072.09;5092132;28;20102;-73
2023/03/31 04:27:56;;;;;;;6.28;3.63;;;;;;;7.47;93.34;93073.88;5091948;28;20526;-73
2023/03/31 04:30:29;;;;;;;8.20;4.00;;;;;;;7.54;92.25;93078.97;5091929;28;20044;-73
2023/03/31 04:32:57;;;;;;;8.05;3.88;;;;;;;7.50;91.61;93059.88;5091895;28;20044;-73
2023/03/31 04:35:26;;;;;;;6.32;2.80;;;;;;;7.60;91.88;93072.31;5092287;28;20181;-73
2023/03/31 04:37:57;;;;;;;6.25;2.95;;;;;;;7.62;90.53;93065.22;5091796;28;20097;-73
2023/03/31 04:40:24;;;;;;;6.20;3.38;;;;;;;7.64;90.11;93070.16;5091976;28;20063;-73
2023/03/31 04:42:52;;;;;;;6.22;3.40;;;;;;;7.67;90.06;93067.19;5092322;28;20546;-73
2023/03/31 04:45:19;;;;;;;4.47;2.38;;;;;;;7.64;89.12;93075.25;5091675;28;20044;-73
2023/03/31 04:47:45;;;;;;;7.15;3.08;;;;;;;7.45;88.50;93037.47;5091821;28;20048;-73
2023/03/31 04:50:12;;;;;;;8.23;3.28;;;;;;;7.68;88.84;93079.78;5092116;28;20044;-73
2023/03/31 04:52:39;;;;;;;7.85;2.97;;;;;;;7.70;89.05;93074.47;5091497;28;20071;-73
2023/03/31 04:55:07;;;;;;;10.43;3.45;;;;;;;7.80;88.58;93079.22;5078328;28;20047;-73
2023/03/31 04:57:34;;;;;;;9.73;4.55;;;;;;;7.74;88.60;93068.00;5091871;28;20646;-73
2023/03/31 05:00:05;;;;;;;6.57;3.20;;;;;;;7.74;88.44;93061.09;5091211;28;20043;-73
2023/03/31 05:02:32;;;;;;;6.28;3.17;;;;;;;7.71;88.80;93051.28;5091460;28;20123;-73
2023/03/31 05:04:59;;;;;;;6.18;2.63;;;;;;;7.75;89.37;93055.03;5091455;28;20040;-73
2023/03/31 05:07:26;;;;;;;7.68;2.30;;;;;;;7.70;90.24;93052.28;5091532;28;20044;-73
2023/03/31 05:09:52;;;;;;;6.43;2.72;;;;;;;7.80;90.57;93046.75;5091332;28;20089;-73
2023/03/31 05:12:19;;;;;;;7.32;2.13;;;;;;;7.84;89.97;93050.50;5091384;28;20048;-73
2023/03/31 05:14:46;;;;;;;5.57;2.88;;;;;;;7.89;90.11;93039.69;5091246;28;20496;-73
2023/03/31 05:17:16;;;;;;;7.70;2.83;;;;;;;8.00;89.15;93033.97;5091136;28;20098;-73
2023/03/31 05:19:43;;;;;;;7.72;3.20;;;;;;;8.11;88.40;93040.25;5091598;28;20052;-73
2023/03/31 05:22:10;;;;;;;4.95;2.50;;;;;;;8.15;88.17;93040.66;5091217;28;20040;-73
2023/03/31 05:24:37;;;;;;;6.43;2.40;;;;;;;8.23;87.83;93037.88;5091207;28;20094;-72
2023/03/31 05:27:03;;;;;;;5.93;2.35;;;;;;;8.31;87.90;93030.97;5090554;28;20086;-72
2023/03/31 05:29:30;;;;;;;5.15;2.13;;;;;;;8.38;87.18;93034.34;5091266;28;20052;-73
2023/03/31 05:31:57;;;;;;;6.10;2.30;;;;;;;8.40;86.91;93042.59;5090446;28;20056;-73
2023/03/31 05:34:25;;;;;;;6.97;3.13;;;;;;;8.48;86.66;93042.34;5090729;28;20508;-73
2023/03/31 05:36:52;;;;;;;6.10;2.78;;;;;;;8.59;86.36;93035.06;5090494;28;20091;-73
2023/03/31 05:39:20;;;;;;;7.18;3.00;;;;;;;8.74;85.46;93043.31;5090762;28;20083;-73
2023/03/31 05:41:46;;;;;;;9.75;3.70;;;;;;;8.90;84.80;93046.41;5090953;28;20048;-72
2023/03/31 05:44:13;;;;;;;7.43;3.85;;;;;;;9.03;83.17;93043.78;5090984;28;20048;-72
2023/03/31 05:46:40;;;;;;;9.13;3.40;;;;;;;9.16;82.30;93037.06;5090902;28;20097;-72
2023/03/31 05:49:07;;;;;;;11.10;4.45;;;;;;;9.24;82.15;93034.25;5090927;28;20048;-72
2023/03/31 05:51:35;;;;;;;8.45;4.07;;;;;;;9.39;80.86;93033.19;5090590;28;20097;-72
2023/03/31 05:54:02;;;;;;;6.30;3.22;;;;;;;9.44;79.39;93036.69;5090750;28;20048;-72
2023/03/31 05:56:29;;;;;;;5.72;3.28;;;;;;;9.51;78.40;93040.97;5090185;28;20044;-73
2023/03/31 05:58:55;;;;;;;9.25;2.92;;;;;;;9.52;77.34;93034.84;5090628;28;20051;-73
2023/03/31 06:01:23;;;;;;;8.60;2.55;;;;;;;9.57;76.95;93042.72;5089941;28;20048;-73
2023/03/31 06:03:50;;;;;;;5.00;1.83;;;;;;;9.46;76.49;93028.78;5089600;28;20088;-73
2023/03/31 06:06:18;;;;;;;5.85;1.98;;;;;;;9.45;76.70;93037.47;5090378;28;20127;-73
2023/03/31 06:08:47;;;;;;;4.78;2.00;;;;;;;9.34;76.68;93023.53;5090401;28;20048;-73
2023/03/31 06:11:15;;;;;;;7.28;2.65;;;;;;;9.62;77.06;93050.56;5090387;28;20117;-73
2023/03/31 06:13:42;;;;;;;6.13;2.70;;;;;;;9.66;77.50;93045.81;5090492;28;20052;-73
2023/03/31 06:16:11;;;;;;;10.10;2.80;;;;;;;9.73;76.77;93047.34;5089981;28;20157;-73
2023/03/31 06:18:38;;;;;;;8.15;2.95;;;;;;;9.79;76.70;93043.19;5089822;28;20051;-73
2023/03/31 06:21:06;;;;;;;5.30;2.58;;;;;;;9.86;76.63;93048.28;5090289;28;20044;-73
2023/03/31 06:23:33;;;;;;;8.27;2.58;;;;;;;9.86;76.65;93038.00;5090181;28;20048;-73
2023/03/31 06:26:03;;;;;;;7.13;2.70;;;;;;;9.95;76.12;93043.66;5089875;28;20055;-73
2023/03/31 06:28:30;;;;;;;6.03;2.45;;;;;;;9.99;76.94;93037.88;5089942;28;20438;-73
2023/03/31 06:31:02;;;;;;;6.22;2.13;;;;;;;10.05;76.42;93038.06;5089881;28;20451;-73
2023/03/31 06:33:28;;;;;;;5.72;2.35;;;;;;;10.03;76.84;93021.09;5089904;28;20040;-73
2023/03/31 06:35:56;;;;;;;6.13;2.33;;;;;;;10.04;76.41;93026.97;5089604;28;20044;-73
2023/03/31 06:38:23;;;;;;;8.00;2.42;;;;;;;10.15;76.01;93033.22;5089640;28;20522;-73
2023/03/31 06:40:50;;;;;;;7.50;2.53;;;;;;;10.09;75.42;93037.41;5090030;28;20109;-73
2023/03/31 06:43:18;;;;;;;7.30;2.20;;;;;;;10.07;75.75;93038.63;5089023;28;20056;-73
2023/03/31 06:45:45;;;;;;;5.80;2.33;;;;;;;10.04;75.69;93034.69;5089673;28;20040;-73
2023/03/31 06:48:11;;;;;;;6.88;2.50;;;;;;;9.95;75.70;93025.69;5089305;28;20097;-73
2023/03/31 06:50:38;;;;;;;7.57;3.15;;;;;;;10.01;76.37;93022.28;5089630;28;20081;-73
2023/03/31 06:53:05;;;;;;;9.27;2.60;;;;;;;10.10;76.57;93040.78;5089311;28;20554;-73
2023/03/31 06:55:32;;;;;;;6.45;2.25;;;;;;;10.16;76.37;93040.72;5089475;28;20044;-73
2023/03/31 06:57:59;;;;;;;8.73;3.10;;;;;;;10.13;76.35;93027.50;5089218;28;20055;-73
2023/03/31 07:00:27;;;;;;;6.32;2.30;;;;;;;10.27;76.25;93035.88;5089686;28;20051;-73
2023/03/31 07:02:54;;;;;;;5.57;2.33;;;;;;;10.38;75.56;93029.28;5089357;28;20048;-73
2023/03/31 07:05:25;;;;;;;7.68;3.15;;;;;;;10.30;74.87;93027.75;5089180;28;20090;-73
2023/03/31 07:07:52;;;;;;;7.43;2.67;;;;;;;10.09;74.97;93000.72;5088918;28;20054;-73
2023/03/31 07:10:20;;;;;;;7.45;2.55;;;;;;;10.32;74.21;93019.84;5089097;28;20061;-73
2023/03/31 07:12:46;;;;;;;8.82;2.63;;;;;;;10.37;73.14;93020.00;5089443;28;20508;-73
2023/03/31 07:15:13;;;;;;;9.00;2.95;;;;;;;10.42;73.25;93018.34;5099467;28;20113;-73
2023/03/31 07:17:41;;;;;;;9.27;3.13;;;;;;;10.66;73.67;93015.19;5090100;28;20052;-73
2023/03/31 07:20:11;;;;;;;7.57;2.60;;;;;;;10.90;72.21;93005.81;5085576;28;20039;-73
2023/03/31 07:22:40;;;;;;;7.25;2.95;;;;;;;11.03;69.68;93016.94;5072133;28;20397;-73
2023/03/31 07:25:07;;;;;;;6.28;2.45;;;;;;;11.07;69.26;93013.69;5087813;28;20056;-73
2023/03/31 07:27:34;;;;;;;7.45;2.20;;;;;;;11.15;69.02;93010.03;5089058;28;20089;-73
2023/03/31 07:30:00;;;;;;;7.13;2.90;;;;;;;11.25;69.05;93001.03;5088727;28;20048;-73
2023/03/31 07:32:27;;;;;;;6.40;2.50;;;;;;;11.25;68.66;92995.91;5089026;28;20052;-73
2023/03/31 07:34:55;;;;;;;8.95;3.80;;;;;;;11.28;69.46;92983.38;5089014;28;20114;-73
2023/03/31 07:37:22;;;;;;;8.00;2.60;;;;;;;11.35;70.07;92970.44;5088839;28;20508;-73
2023/03/31 07:39:49;;;;;;;7.13;2.25;;;;;;;11.46;69.53;92971.47;5088943;28;20105;-73
2023/03/31 07:42:16;;;;;;;8.30;2.65;;;;;;;11.38;69.50;92967.41;5088943;28;20052;-73
2023/03/31 07:44:44;;;;;;;6.82;2.42;;;;;;;11.59;68.90;92975.63;5088860;28;20048;-73
2023/03/31 07:47:10;;;;;;;8.13;2.45;;;;;;;11.63;68.62;92948.44;5088715;28;20079;-73
2023/03/31 07:49:37;;;;;;;7.70;2.50;;;;;;;11.98;69.99;92970.06;5088781;28;20447;-73
2023/03/31 07:52:05;;;;;;;5.05;2.33;;;;;;;12.25;68.29;92982.50;5088718;28;20040;-73
2023/03/31 07:54:32;;;;;;;12.25;3.65;;;;;;;12.36;65.89;92980.94;5088629;28;20388;-73
2023/03/31 07:57:00;;;;;;;8.23;2.97;;;;;;;12.54;65.05;92977.41;5088637;28;20051;-73
2023/03/31 07:59:27;;;;;;;8.00;2.85;;;;;;;12.58;65.78;92967.47;5088894;28;20526;-73
2023/03/31 08:01:54;;;;;;;4.88;2.58;;;;;;;12.98;64.72;92982.13;5088666;28;20081;-73
2023/03/31 08:04:21;;;;;;;5.00;2.30;;;;;;;13.20;62.80;92976.34;5088248;28;20572;-73
2023/03/31 08:06:47;;;;;;;7.32;2.53;;;;;;;13.40;62.56;92965.56;5088604;28;20048;-73
2023/03/31 08:09:16;;;;;;;7.47;2.50;;;;;;;13.61;59.98;92974.44;5088433;28;20416;-73
2023/03/31 08:11:43;;;;;;;5.97;2.20;;;;;;;13.59;59.98;92963.59;5088860;28;20479;-73
2023/03/31 08:14:10;;;;;;;7.65;2.10;;;;;;;13.43;59.49;92959.16;5088871;28;20048;-73
2023/03/31 08:16:36;;;;;;;5.68;2.28;;;;;;;13.35;60.24;92948.22;5088453;28;20492;-73
2023/03/31 08:19:03;;;;;;;13.52;3.20;;;;;;;13.34;60.49;92951.78;5088434;28;20055;-73
2023/03/31 08:21:30;;;;;;;6.57;2.63;;;;;;;13.54;60.24;92949.81;5088707;28;20488;-73
2023/03/31 08:23:57;;;;;;;5.85;1.92;;;;;;;13.85;59.79;92956.22;5088240;28;20044;-73
2023/03/31 08:26:26;;;;;;;6.05;2.25;;;;;;;14.12;59.01;92958.16;5092821;28;20047;-73
2023/03/31 08:28:53;;;;;;;4.60;2.00;;;;;;;14.25;57.76;92944.13;5094033;28;20449;-73
2023/03/31 08:31:22;;;;;;;7.60;3.10;;;;;;;14.26;57.05;92942.31;5091789;28;20050;-73
2023/03/31 08:33:49;;;;;;;6.03;1.83;;;;;;;14.22;56.48;92946.41;5091530;28;20097;-73
2023/03/31 08:36:16;;;;;;;8.68;3.08;;;;;;;14.34;56.88;92944.47;5092324;28;20428;-73
2023/03/31 08:38:45;;;;;;;10.63;3.50;;;;;;;14.56;58.19;92951.47;5091928;28;20052;-74
2023/03/31 08:41:36;;;;;;;8.68;2.38;;;;;;;14.68;56.77;92943.59;5091721;28;20335;-73
2023/03/31 08:44:10;;;;;;;5.63;2.47;;;;;;;14.70;55.96;92936.38;5092242;28;20097;-73
2023/03/31 08:46:39;;;;;;;5.38;1.98;;;;;;;14.59;56.15;92919.97;5090934;28;20278;-73
2023/03/31 08:49:10;;;;;;;4.53;1.90;;;;;;;14.58;55.12;92931.31;5092016;28;20052;-73
2023/03/31 08:51:41;;;;;;;9.80;3.33;;;;;;;14.52;56.19;92933.09;5091376;28;20528;-73
2023/03/31 08:54:14;;;;;;;8.30;2.70;;;;;;;14.53;55.96;92923.50;5091991;28;20386;-73
2023/03/31 08:56:47;;;;;;;7.45;2.50;;;;;;;14.52;56.93;92915.00;5091674;28;20109;-73
2023/03/31 08:59:20;;;;;;;8.45;2.97;;;;;;;14.48;57.50;92920.88;5091421;28;20508;-73
2023/03/31 09:01:52;;;;;;;8.23;1.80;;;;;;;14.63;56.89;92913.28;5091945;28;20124;-73
2023/03/31 09:04:37;;;;;;;7.68;2.10;;;;;;;14.85;56.27;92904.00;5091312;28;20052;-73
2023/03/31 09:07:12;;;;;;;6.70;1.83;;;;;;;15.30;55.80;92909.81;5076528;28;20053;-73
2023/03/31 09:09:51;;;;;;;3.10;1.92;;;;;;;15.57;54.92;92909.78;5089465;28;20040;-74
2023/03/31 09:12:23;;;;;;;9.10;2.67;;;;;;;15.68;53.12;92910.63;5091064;28;20389;-73
2023/03/31 09:14:57;;;;;;;5.90;2.00;;;;;;;15.81;52.35;92909.44;5091466;28;20222;-73
2023/03/31 09:17:27;;;;;;;5.13;2.35;;;;;;;15.78;52.96;92899.56;5091351;28;20142;-73
2023/03/31 09:19:58;;;;;;;7.18;1.98;;;;;;;15.71;53.05;92899.00;5091052;28;20504;-73
2023/03/31 09:22:31;;;;;;;4.18;2.00;;;;;;;15.83;53.04;92893.66;5090889;28;20052;-73
2023/03/31 09:25:03;;;;;;;7.78;2.40;;;;;;;16.05;51.23;92903.88;5090954;28;20508;-74
2023/03/31 09:27:35;;;;;;;6.65;1.85;;;;;;;15.97;51.02;92899.19;5090921;28;20048;-73
2023/03/31 09:30:09;;;;;;;8.65;2.80;;;;;;;15.86;50.85;92882.78;5090673;28;20055;-73
2023/03/31 09:32:38;;;;;;;8.70;2.45;;;;;;;15.94;49.92;92897.88;5090600;28;20093;-73
2023/03/31 09:35:16;;;;;;;6.15;2.30;;;;;;;16.05;50.32;92898.72;5090525;28;20048;-73
2023/03/31 09:37:43;;;;;;;6.53;2.20;;;;;;;16.01;51.41;92895.06;5090646;28;20048;-73
2023/03/31 09:40:17;;;;;;;7.60;2.97;;;;;;;16.12;52.37;92888.88;5089794;28;20385;-73
2023/03/31 09:42:46;;;;;;;11.48;5.65;;;;;;;16.19;49.56;92873.13;5090747;28;20062;-74
2023/03/31 09:45:17;;;;;;;6.18;2.40;;;;;;;16.26;48.85;92858.13;5090909;28;20453;-73
2023/03/31 09:47:46;;;;;;;5.00;1.90;;;;;;;16.22;48.58;92846.72;5090496;28;20113;-73
2023/03/31 09:50:15;;;;;;;3.88;1.50;;;;;;;16.49;48.30;92870.91;5090644;28;20048;-73
2023/03/31 09:52:46;;;;;;;5.38;2.38;;;;;;;16.54;49.05;92863.91;5090985;28;20114;-73
2023/03/31 09:55:21;;;;;;;6.53;2.13;;;;;;;16.65;47.43;92882.09;5090741;28;20109;-73
2023/03/31 09:57:49;;;;;;;5.17;1.83;;;;;;;16.57;47.13;92867.81;5090490;28;20117;-73
2023/03/31 10:00:18;;;;;;;5.57;2.08;;;;;;;16.49;47.31;92863.91;5090149;28;20768;-73
2023/03/31 10:02:49;;;;;;;6.72;1.95;;;;;;;16.56;47.53;92867.03;5090003;28;20059;-73
2023/03/31 10:05:28;;;;;;;4.85;1.90;;;;;;;16.53;46.91;92862.34;5090114;28;20554;-73
2023/03/31 10:08:23;;;;;;;6.03;2.50;;;;;;;16.67;47.35;92859.28;5089990;28;20552;-73
2023/03/31 10:10:51;;;;;;;;;;;;;;;16.74;47.56;92859.81;5090761;28;20069;-73
2023/03/31 10:16:08;;;;;;;7.53;1.90;;;;;;;16.60;47.89;92853.56;5089955;28;20070;-73
2023/03/31 10:18:36;;;;;;;10.23;2.75;;;;;;;16.58;47.88;92851.25;5089914;28;20139;-74
2023/03/31 10:21:05;;;;;;;7.65;3.20;;;;;;;16.34;46.80;92850.91;5089710;28;20040;-73
2023/03/31 10:23:33;;;;;;;6.25;2.20;;;;;;;16.07;48.81;92844.06;5089933;28;20097;-74
2023/03/31 10:26:02;;;;;;;12.90;4.45;;;;;;;16.27;48.99;92831.19;5076810;28;20044;-73
2023/03/31 10:28:34;;;;;;;8.10;3.15;;;;;;;16.35;47.70;92826.53;5090004;28;20128;-73
2023/03/31 10:31:02;;;;;;;5.43;1.80;;;;;;;16.13;47.41;92833.47;5089923;28;20435;-73
2023/03/31 10:33:33;;;;;;;6.13;2.67;;;;;;;16.24;49.52;92839.47;5089649;28;20135;-73
2023/03/31 10:36:03;;;;;;;9.23;2.67;;;;;;;16.40;47.82;92829.91;5090007;28;20459;-73
2023/03/31 10:38:34;;;;;;;9.73;6.03;;;;;;;16.55;47.98;92821.41;5089660;28;20040;-73
2023/03/31 10:41:01;;;;;;;14.07;5.43;;;;;;;16.68;47.98;92820.13;5089834;28;20040;-73
2023/03/31 10:43:29;;;;;;;11.32;3.63;;;;;;;16.74;47.38;92814.94;5089695;28;20130;-73
2023/03/31 10:46:00;;;;;;;12.60;6.28;;;;;;;16.80;47.35;92816.53;5089368;28;20097;-73
2023/03/31 10:48:29;;;;;;;89.18;45.38;;;;;;;16.84;46.24;92802.00;5089344;28;20052;-73
2023/03/31 10:51:00;;;;;;;35.58;17.77;;;;;;;16.84;46.86;92809.78;5089045;28;20055;-73
2023/03/31 10:53:27;;;;;;;9.15;4.05;;;;;;;16.78;46.22;92810.81;5089402;28;20252;-73
2023/03/31 10:56:14;;;;;;;7.80;3.70;;;;;;;16.96;46.33;92804.34;5089403;28;20052;-73
2023/03/31 10:58:57;;;;;;;8.45;3.72;;;;;;;16.96;47.29;92796.56;5078249;28;20462;-73
2023/03/31 11:01:36;;;;;;;6.63;2.58;;;;;;;16.55;46.30;92795.50;5089130;28;20040;-73
2023/03/31 11:04:26;;;;;;;5.68;1.90;;;;;;;16.10;47.45;92804.69;5089275;28;20051;-73
2023/03/31 11:06:57;;;;;;;4.00;1.85;;;;;;;16.10;49.18;92771.78;5078981;28;20055;-73
2023/03/31 11:09:38;;;;;;;8.15;3.28;;;;;;;16.64;47.60;92789.78;5089405;28;20093;-73
2023/03/31 11:12:15;;;;;;;14.50;4.65;;;;;;;16.88;47.25;92790.06;5089417;28;20043;-73
2023/03/31 11:14:54;;;;;;;22.58;13.07;;;;;;;17.06;48.07;92777.63;5089253;28;20044;-73
2023/03/31 11:17:33;;;;;;;7.40;2.72;;;;;;;17.13;45.50;92782.56;5089510;28;20069;-73
2023/03/31 11:20:11;;;;;;;3.55;1.73;;;;;;;17.04;46.91;92777.88;5088960;28;20081;-73
2023/03/31 11:22:52;;;;;;;6.35;3.13;;;;;;;17.36;46.63;92763.09;5089013;28;20480;-73
2023/03/31 11:25:35;;;;;;;4.63;1.63;;;;;;;17.03;44.82;92757.41;5089122;28;20076;-73
2023/03/31 11:28:23;;;;;;;4.65;1.58;;;;;;;17.46;46.16;92754.50;5089193;28;20048;-73
2023/03/31 11:30:56;;;;;;;10.13;7.60;;;;;;;17.58;44.28;92754.97;5075522;28;20093;-73
2023/03/31 11:33:41;;;;;;;5.00;2.38;;;;;;;16.61;45.15;92756.59;5089347;28;20044;-73
2023/03/31 11:36:20;;;;;;;3.42;1.67;;;;;;;16.12;47.03;92741.22;5088727;28;20048;-73
2023/03/31 11:39:00;;;;;;;4.78;2.03;;;;;;;16.01;47.24;92743.00;5088679;28;20056;-73
2023/03/31 11:41:34;;;;;;;7.63;1.90;;;;;;;16.30;45.59;92742.53;5088814;28;20093;-73
2023/03/31 11:44:04;;;;;;;8.73;3.53;;;;;;;16.36;47.00;92734.78;5088666;28;20040;-73
2023/03/31 11:46:39;;;;;;;6.57;1.95;;;;;;;16.30;46.93;92732.19;5087365;28;20048;-73
2023/03/31 11:49:16;;;;;;;6.37;1.97;;;;;;;16.36;48.08;92717.44;5076060;28;20153;-73
2023/03/31 11:51:48;;;;;;;4.40;1.23;;;;;;;16.39;45.95;92716.91;5072909;28;20044;-73
2023/03/31 11:54:20;;;;;;;3.60;1.50;;;;;;;16.20;46.01;92708.84;5089013;28;20044;-72
2023/03/31 11:56:48;;;;;;;4.28;1.17;;;;;;;16.73;46.51;92710.44;5075802;28;20082;-72